sensor_id;sensor_type;location;lat;lon;timestamp;P1;durP1;ratioP1;P2;durP2;ratioP2
46721;SDS011;32455;43.430;23.136;2023-04-03T00:02:03;1.60;;;0.80;;
46721;SDS011;32455;43.430;23.136;2023-04-03T00:04:48;0.80;;;0.80;;
46721;SDS011;32455;43.430;23.136;2023-04-03T00:07:34;0.95;;;0.75;;
46721;SDS011;32455;43.430;23.136;2023-04-03T00:10:20;0.90;;;0.70;;
46721;SDS011;32455;43.430;23.136;2023-04-03T00:13:06;1.02;;;0.73;;
46721;SDS011;32455;43.430;23.136;2023-04-03T00:15:53;2.05;;;0.80;;
46721;SDS011;32455;43.430;23.136;2023-04-03T00:18:39;1.77;;;0.90;;
46721;SDS011;32455;43.430;23.136;2023-04-03T00:21:25;0.98;;;0.68;;
46721;SDS011;32455;43.430;23.136;2023-04-03T00:24:11;0.82;;;0.75;;
46721;SDS011;32455;43.430;23.136;2023-04-03T00:26:56;1.10;;;0.85;;
46721;SDS011;32455;43.430;23.136;2023-04-03T00:29:41;0.55;;;0.55;;
46721;SDS011;32455;43.430;23.136;2023-04-03T00:32:27;0.60;;;0.60;;
46721;SDS011;32455;43.430;23.136;2023-04-03T00:35:13;0.80;;;0.80;;
46721;SDS011;32455;43.430;23.136;2023-04-03T00:38:00;1.00;;;0.70;;
46721;SDS011;32455;43.430;23.136;2023-04-03T00:40:47;2.65;;;1.17;;
46721;SDS011;32455;43.430;23.136;2023-04-03T00:43:33;0.70;;;0.70;;
46721;SDS011;32455;43.430;23.136;2023-04-03T00:46:18;1.75;;;1.05;;
46721;SDS011;32455;43.430;23.136;2023-04-03T00:49:04;1.98;;;0.65;;
46721;SDS011;32455;43.430;23.136;2023-04-03T00:51:49;1.52;;;0.80;;
46721;SDS011;32455;43.430;23.136;2023-04-03T00:54:35;1.55;;;0.75;;
46721;SDS011;32455;43.430;23.136;2023-04-03T00:57:22;1.90;;;1.10;;
46721;SDS011;32455;43.430;23.136;2023-04-03T01:00:09;0.80;;;0.80;;
46721;SDS011;32455;43.430;23.136;2023-04-03T01:02:57;1.10;;;0.70;;
46721;SDS011;32455;43.430;23.136;2023-04-03T01:05:42;0.75;;;0.70;;
46721;SDS011;32455;43.430;23.136;2023-04-03T01:08:28;1.10;;;0.70;;
46721;SDS011;32455;43.430;23.136;2023-04-03T01:11:13;0.93;;;0.77;;
46721;SDS011;32455;43.430;23.136;2023-04-03T01:13:59;0.73;;;0.73;;
46721;SDS011;32455;43.430;23.136;2023-04-03T01:16:54;1.67;;;0.80;;
46721;SDS011;32455;43.430;23.136;2023-04-03T01:19:40;0.68;;;0.68;;
46721;SDS011;32455;43.430;23.136;2023-04-03T01:22:34;1.73;;;1.60;;
46721;SDS011;32455;43.430;23.136;2023-04-03T01:25:32;1.30;;;0.88;;
46721;SDS011;32455;43.430;23.136;2023-04-03T01:28:20;2.10;;;0.80;;
46721;SDS011;32455;43.430;23.136;2023-04-03T01:34:35;0.80;;;0.80;;
46721;SDS011;32455;43.430;23.136;2023-04-03T01:37:21;1.05;;;0.77;;
46721;SDS011;32455;43.430;23.136;2023-04-03T01:40:06;1.08;;;0.90;;
46721;SDS011;32455;43.430;23.136;2023-04-03T01:42:52;0.80;;;0.80;;
46721;SDS011;32455;43.430;23.136;2023-04-03T01:45:38;0.70;;;0.70;;
46721;SDS011;32455;43.430;23.136;2023-04-03T01:48:23;3.25;;;0.80;;
46721;SDS011;32455;43.430;23.136;2023-04-03T01:51:09;1.00;;;0.80;;
46721;SDS011;32455;43.430;23.136;2023-04-03T01:53:55;1.40;;;1.10;;
46721;SDS011;32455;43.430;23.136;2023-04-03T01:56:41;2.78;;;1.08;;
46721;SDS011;32455;43.430;23.136;2023-04-03T01:59:26;1.02;;;0.90;;
46721;SDS011;32455;43.430;23.136;2023-04-03T02:02:12;0.90;;;0.90;;
46721;SDS011;32455;43.430;23.136;2023-04-03T02:04:59;0.90;;;0.90;;
46721;SDS011;32455;43.430;23.136;2023-04-03T02:07:44;1.00;;;0.90;;
46721;SDS011;32455;43.430;23.136;2023-04-03T02:10:29;1.75;;;1.17;;
46721;SDS011;32455;43.430;23.136;2023-04-03T02:13:15;1.00;;;0.80;;
46721;SDS011;32455;43.430;23.136;2023-04-03T02:16:09;0.82;;;0.82;;
46721;SDS011;32455;43.430;23.136;2023-04-03T02:18:56;1.08;;;0.88;;
46721;SDS011;32455;43.430;23.136;2023-04-03T02:21:41;0.77;;;0.77;;
46721;SDS011;32455;43.430;23.136;2023-04-03T02:24:26;0.80;;;0.80;;
46721;SDS011;32455;43.430;23.136;2023-04-03T02:27:12;0.70;;;0.70;;
46721;SDS011;32455;43.430;23.136;2023-04-03T02:29:57;1.20;;;0.85;;
46721;SDS011;32455;43.430;23.136;2023-04-03T02:32:42;1.58;;;0.73;;
46721;SDS011;32455;43.430;23.136;2023-04-03T02:35:29;0.70;;;0.70;;
46721;SDS011;32455;43.430;23.136;2023-04-03T02:38:14;1.13;;;0.88;;
46721;SDS011;32455;43.430;23.136;2023-04-03T02:41:01;1.83;;;0.60;;
46721;SDS011;32455;43.430;23.136;2023-04-03T02:43:47;0.77;;;0.70;;
46721;SDS011;32455;43.430;23.136;2023-04-03T02:46:33;0.90;;;0.80;;
46721;SDS011;32455;43.430;23.136;2023-04-03T02:49:18;1.17;;;0.90;;
46721;SDS011;32455;43.430;23.136;2023-04-03T02:52:04;0.80;;;0.70;;
46721;SDS011;32455;43.430;23.136;2023-04-03T02:54:49;3.13;;;1.25;;
46721;SDS011;32455;43.430;23.136;2023-04-03T02:57:35;0.77;;;0.77;;
46721;SDS011;32455;43.430;23.136;2023-04-03T03:00:20;1.38;;;1.08;;
46721;SDS011;32455;43.430;23.136;2023-04-03T03:03:06;1.30;;;0.90;;
46721;SDS011;32455;43.430;23.136;2023-04-03T03:06:00;1.70;;;0.90;;
46721;SDS011;32455;43.430;23.136;2023-04-03T03:08:49;0.80;;;0.80;;
46721;SDS011;32455;43.430;23.136;2023-04-03T03:11:34;0.90;;;0.90;;
46721;SDS011;32455;43.430;23.136;2023-04-03T03:14:19;0.80;;;0.80;;
46721;SDS011;32455;43.430;23.136;2023-04-03T03:17:05;1.42;;;0.95;;
46721;SDS011;32455;43.430;23.136;2023-04-03T03:19:50;1.80;;;0.90;;
46721;SDS011;32455;43.430;23.136;2023-04-03T03:22:35;1.95;;;1.27;;
46721;SDS011;32455;43.430;23.136;2023-04-03T03:25:21;2.85;;;1.40;;
46721;SDS011;32455;43.430;23.136;2023-04-03T03:28:07;1.60;;;1.50;;
46721;SDS011;32455;43.430;23.136;2023-04-03T03:30:54;3.22;;;1.20;;
46721;SDS011;32455;43.430;23.136;2023-04-03T03:33:40;4.07;;;0.90;;
46721;SDS011;32455;43.430;23.136;2023-04-03T03:36:25;1.85;;;0.80;;
46721;SDS011;32455;43.430;23.136;2023-04-03T03:39:11;1.23;;;1.13;;
46721;SDS011;32455;43.430;23.136;2023-04-03T03:41:57;0.93;;;0.93;;
46721;SDS011;32455;43.430;23.136;2023-04-03T03:44:42;0.85;;;0.80;;
46721;SDS011;32455;43.430;23.136;2023-04-03T03:47:27;0.82;;;0.82;;
46721;SDS011;32455;43.430;23.136;2023-04-03T03:50:13;0.90;;;0.90;;
46721;SDS011;32455;43.430;23.136;2023-04-03T03:52:58;0.90;;;0.90;;
46721;SDS011;32455;43.430;23.136;2023-04-03T03:55:43;0.80;;;0.80;;
46721;SDS011;32455;43.430;23.136;2023-04-03T03:58:28;2.13;;;1.05;;
46721;SDS011;32455;43.430;23.136;2023-04-03T04:01:15;1.55;;;1.10;;
46721;SDS011;32455;43.430;23.136;2023-04-03T04:04:01;0.80;;;0.80;;
46721;SDS011;32455;43.430;23.136;2023-04-03T04:06:46;1.80;;;0.95;;
46721;SDS011;32455;43.430;23.136;2023-04-03T04:09:31;5.03;;;2.10;;
46721;SDS011;32455;43.430;23.136;2023-04-03T04:12:17;5.20;;;1.92;;
46721;SDS011;32455;43.430;23.136;2023-04-03T04:15:03;13.23;;;4.05;;
46721;SDS011;32455;43.430;23.136;2023-04-03T04:17:49;10.50;;;2.88;;
46721;SDS011;32455;43.430;23.136;2023-04-03T04:20:34;3.95;;;2.10;;
46721;SDS011;32455;43.430;23.136;2023-04-03T04:23:20;7.85;;;3.15;;
46721;SDS011;32455;43.430;23.136;2023-04-03T04:26:05;8.60;;;3.08;;
46721;SDS011;32455;43.430;23.136;2023-04-03T04:28:50;1.27;;;1.05;;
46721;SDS011;32455;43.430;23.136;2023-04-03T04:31:36;3.80;;;2.00;;
46721;SDS011;32455;43.430;23.136;2023-04-03T04:34:21;3.83;;;1.50;;
46721;SDS011;32455;43.430;23.136;2023-04-03T04:37:06;4.97;;;2.20;;
46721;SDS011;32455;43.430;23.136;2023-04-03T04:39:51;6.20;;;2.42;;
46721;SDS011;32455;43.430;23.136;2023-04-03T04:42:36;3.75;;;1.70;;
46721;SDS011;32455;43.430;23.136;2023-04-03T04:45:22;1.50;;;1.10;;
46721;SDS011;32455;43.430;23.136;2023-04-03T04:48:07;1.98;;;1.20;;
46721;SDS011;32455;43.430;23.136;2023-04-03T04:50:53;3.17;;;1.60;;
46721;SDS011;32455;43.430;23.136;2023-04-03T04:53:38;4.22;;;1.20;;
46721;SDS011;32455;43.430;23.136;2023-04-03T04:56:24;4.55;;;1.90;;
46721;SDS011;32455;43.430;23.136;2023-04-03T04:59:10;5.35;;;1.92;;
46721;SDS011;32455;43.430;23.136;2023-04-03T05:01:54;8.15;;;2.97;;
46721;SDS011;32455;43.430;23.136;2023-04-03T05:04:40;2.42;;;0.70;;
46721;SDS011;32455;43.430;23.136;2023-04-03T05:07:25;0.80;;;0.60;;
46721;SDS011;32455;43.430;23.136;2023-04-03T05:10:10;0.80;;;0.70;;
46721;SDS011;32455;43.430;23.136;2023-04-03T05:12:56;2.47;;;1.00;;
46721;SDS011;32455;43.430;23.136;2023-04-03T05:15:42;1.27;;;0.75;;
46721;SDS011;32455;43.430;23.136;2023-04-03T05:18:28;5.35;;;1.20;;
46721;SDS011;32455;43.430;23.136;2023-04-03T05:21:13;5.85;;;1.45;;
46721;SDS011;32455;43.430;23.136;2023-04-03T05:23:59;3.50;;;1.85;;
46721;SDS011;32455;43.430;23.136;2023-04-03T05:26:47;5.93;;;2.13;;
46721;SDS011;32455;43.430;23.136;2023-04-03T05:29:32;1.60;;;1.08;;
46721;SDS011;32455;43.430;23.136;2023-04-03T05:32:18;2.03;;;1.17;;
46721;SDS011;32455;43.430;23.136;2023-04-03T05:35:04;2.20;;;0.90;;
46721;SDS011;32455;43.430;23.136;2023-04-03T05:37:50;1.52;;;0.75;;
46721;SDS011;32455;43.430;23.136;2023-04-03T05:40:35;0.70;;;0.70;;
46721;SDS011;32455;43.430;23.136;2023-04-03T05:43:20;1.13;;;0.80;;
46721;SDS011;32455;43.430;23.136;2023-04-03T05:46:09;0.50;;;0.50;;
46721;SDS011;32455;43.430;23.136;2023-04-03T05:48:55;1.65;;;0.70;;
46721;SDS011;32455;43.430;23.136;2023-04-03T05:51:41;1.55;;;0.60;;
46721;SDS011;32455;43.430;23.136;2023-04-03T05:54:27;0.80;;;0.80;;
46721;SDS011;32455;43.430;23.136;2023-04-03T05:57:15;1.65;;;0.80;;
46721;SDS011;32455;43.430;23.136;2023-04-03T06:00:00;1.27;;;0.60;;
46721;SDS011;32455;43.430;23.136;2023-04-03T06:02:46;1.67;;;0.70;;
46721;SDS011;32455;43.430;23.136;2023-04-03T06:05:32;0.90;;;0.50;;
46721;SDS011;32455;43.430;23.136;2023-04-03T06:08:18;1.35;;;0.60;;
46721;SDS011;32455;43.430;23.136;2023-04-03T06:11:03;1.05;;;0.80;;
46721;SDS011;32455;43.430;23.136;2023-04-03T06:13:49;0.93;;;0.60;;
46721;SDS011;32455;43.430;23.136;2023-04-03T06:16:34;1.00;;;0.70;;
46721;SDS011;32455;43.430;23.136;2023-04-03T06:19:19;0.85;;;0.82;;
46721;SDS011;32455;43.430;23.136;2023-04-03T06:22:05;1.15;;;0.77;;
46721;SDS011;32455;43.430;23.136;2023-04-03T06:24:50;0.90;;;0.80;;
46721;SDS011;32455;43.430;23.136;2023-04-03T06:27:36;0.98;;;0.70;;
46721;SDS011;32455;43.430;23.136;2023-04-03T06:30:21;0.95;;;0.82;;
46721;SDS011;32455;43.430;23.136;2023-04-03T06:33:07;0.75;;;0.70;;
46721;SDS011;32455;43.430;23.136;2023-04-03T06:36:03;0.75;;;0.70;;
46721;SDS011;32455;43.430;23.136;2023-04-03T06:38:50;0.80;;;0.73;;
46721;SDS011;32455;43.430;23.136;2023-04-03T06:41:35;2.35;;;0.50;;
46721;SDS011;32455;43.430;23.136;2023-04-03T06:44:20;0.75;;;0.60;;
46721;SDS011;32455;43.430;23.136;2023-04-03T06:47:06;0.95;;;0.80;;
46721;SDS011;32455;43.430;23.136;2023-04-03T06:49:51;0.52;;;0.52;;
46721;SDS011;32455;43.430;23.136;2023-04-03T06:52:37;0.80;;;0.60;;
46721;SDS011;32455;43.430;23.136;2023-04-03T06:55:24;2.15;;;0.75;;
46721;SDS011;32455;43.430;23.136;2023-04-03T06:58:09;0.60;;;0.60;;
46721;SDS011;32455;43.430;23.136;2023-04-03T07:00:55;0.70;;;0.60;;
46721;SDS011;32455;43.430;23.136;2023-04-03T07:03:40;0.98;;;0.80;;
46721;SDS011;32455;43.430;23.136;2023-04-03T07:06:26;2.55;;;0.52;;
46721;SDS011;32455;43.430;23.136;2023-04-03T07:09:12;1.17;;;0.50;;
46721;SDS011;32455;43.430;23.136;2023-04-03T07:11:58;0.55;;;0.55;;
46721;SDS011;32455;43.430;23.136;2023-04-03T07:14:44;0.52;;;0.52;;
46721;SDS011;32455;43.430;23.136;2023-04-03T07:17:30;0.50;;;0.50;;
46721;SDS011;32455;43.430;23.136;2023-04-03T07:20:16;0.88;;;0.70;;
46721;SDS011;32455;43.430;23.136;2023-04-03T07:23:02;2.95;;;1.13;;
46721;SDS011;32455;43.430;23.136;2023-04-03T07:25:48;2.53;;;0.88;;
46721;SDS011;32455;43.430;23.136;2023-04-03T07:28:34;3.15;;;2.25;;
46721;SDS011;32455;43.430;23.136;2023-04-03T07:31:21;0.57;;;0.57;;
46721;SDS011;32455;43.430;23.136;2023-04-03T07:34:07;0.70;;;0.70;;
46721;SDS011;32455;43.430;23.136;2023-04-03T07:36:53;0.55;;;0.55;;
46721;SDS011;32455;43.430;23.136;2023-04-03T07:39:43;1.02;;;0.65;;
46721;SDS011;32455;43.430;23.136;2023-04-03T07:42:28;1.50;;;0.88;;
46721;SDS011;32455;43.430;23.136;2023-04-03T07:45:14;1.13;;;0.75;;
46721;SDS011;32455;43.430;23.136;2023-04-03T07:47:59;1.05;;;0.93;;
46721;SDS011;32455;43.430;23.136;2023-04-03T07:50:47;0.88;;;0.75;;
46721;SDS011;32455;43.430;23.136;2023-04-03T07:53:33;0.98;;;0.70;;
46721;SDS011;32455;43.430;23.136;2023-04-03T07:56:18;0.50;;;0.50;;
46721;SDS011;32455;43.430;23.136;2023-04-03T07:59:05;1.02;;;0.60;;
46721;SDS011;32455;43.430;23.136;2023-04-03T08:01:51;1.05;;;0.98;;
46721;SDS011;32455;43.430;23.136;2023-04-03T08:04:35;1.33;;;0.93;;
46721;SDS011;32455;43.430;23.136;2023-04-03T08:07:21;3.38;;;1.05;;
46721;SDS011;32455;43.430;23.136;2023-04-03T08:10:06;0.80;;;0.80;;
46721;SDS011;32455;43.430;23.136;2023-04-03T08:12:52;3.20;;;1.10;;
46721;SDS011;32455;43.430;23.136;2023-04-03T08:15:37;1.20;;;0.95;;
46721;SDS011;32455;43.430;23.136;2023-04-03T08:18:23;0.68;;;0.65;;
46721;SDS011;32455;43.430;23.136;2023-04-03T08:21:10;1.00;;;0.90;;
46721;SDS011;32455;43.430;23.136;2023-04-03T08:23:56;1.02;;;0.93;;
46721;SDS011;32455;43.430;23.136;2023-04-03T08:26:42;1.08;;;0.90;;
46721;SDS011;32455;43.430;23.136;2023-04-03T08:29:27;0.85;;;0.82;;
46721;SDS011;32455;43.430;23.136;2023-04-03T08:32:14;0.90;;;0.75;;
46721;SDS011;32455;43.430;23.136;2023-04-03T08:34:59;2.10;;;1.35;;
46721;SDS011;32455;43.430;23.136;2023-04-03T08:37:45;1.05;;;1.00;;
46721;SDS011;32455;43.430;23.136;2023-04-03T08:40:30;1.80;;;0.80;;
46721;SDS011;32455;43.430;23.136;2023-04-03T08:43:27;3.92;;;1.02;;
46721;SDS011;32455;43.430;23.136;2023-04-03T08:46:51;2.47;;;2.22;;
46721;SDS011;32455;43.430;23.136;2023-04-03T08:49:55;1.02;;;0.98;;
46721;SDS011;32455;43.430;23.136;2023-04-03T08:52:44;1.13;;;1.02;;
46721;SDS011;32455;43.430;23.136;2023-04-03T08:58:28;1.58;;;1.13;;
46721;SDS011;32455;43.430;23.136;2023-04-03T09:01:21;1.20;;;1.10;;
46721;SDS011;32455;43.430;23.136;2023-04-03T09:04:12;1.10;;;0.98;;
46721;SDS011;32455;43.430;23.136;2023-04-03T09:07:02;1.20;;;1.10;;
46721;SDS011;32455;43.430;23.136;2023-04-03T09:09:53;0.80;;;0.80;;
46721;SDS011;32455;43.430;23.136;2023-04-03T09:12:41;0.88;;;0.88;;
46721;SDS011;32455;43.430;23.136;2023-04-03T09:15:31;1.25;;;1.15;;
46721;SDS011;32455;43.430;23.136;2023-04-03T09:18:20;1.10;;;1.00;;
46721;SDS011;32455;43.430;23.136;2023-04-03T09:24:09;2.95;;;2.28;;
46721;SDS011;32455;43.430;23.136;2023-04-03T09:27:01;1.10;;;1.10;;
46721;SDS011;32455;43.430;23.136;2023-04-03T09:29:57;1.13;;;0.90;;
46721;SDS011;32455;43.430;23.136;2023-04-03T09:32:48;0.80;;;0.80;;
46721;SDS011;32455;43.430;23.136;2023-04-03T09:35:37;2.22;;;1.80;;
46721;SDS011;32455;43.430;23.136;2023-04-03T09:38:25;7.07;;;1.30;;
46721;SDS011;32455;43.430;23.136;2023-04-03T09:41:21;1.25;;;1.15;;
46721;SDS011;32455;43.430;23.136;2023-04-03T09:44:19;2.15;;;1.38;;
46721;SDS011;32455;43.430;23.136;2023-04-03T09:50:21;1.80;;;1.27;;
46721;SDS011;32455;43.430;23.136;2023-04-03T09:53:23;1.52;;;1.20;;
46721;SDS011;32455;43.430;23.136;2023-04-03T09:56:28;2.20;;;1.30;;
46721;SDS011;32455;43.430;23.136;2023-04-03T09:59:15;1.65;;;1.13;;
46721;SDS011;32455;43.430;23.136;2023-04-03T10:02:03;2.28;;;0.90;;
46721;SDS011;32455;43.430;23.136;2023-04-03T10:05:52;1.10;;;1.00;;
46721;SDS011;32455;43.430;23.136;2023-04-03T10:08:25;1.13;;;1.00;;
46721;SDS011;32455;43.430;23.136;2023-04-03T10:11:15;1.80;;;1.27;;
46721;SDS011;32455;43.430;23.136;2023-04-03T10:14:03;3.08;;;1.20;;
46721;SDS011;32455;43.430;23.136;2023-04-03T10:16:56;2.92;;;1.23;;
46721;SDS011;32455;43.430;23.136;2023-04-03T10:19:44;1.25;;;1.05;;
46721;SDS011;32455;43.430;23.136;2023-04-03T10:22:38;1.20;;;1.10;;
46721;SDS011;32455;43.430;23.136;2023-04-03T10:28:25;6.10;;;1.00;;
46721;SDS011;32455;43.430;23.136;2023-04-03T10:34:40;2.33;;;0.80;;
46721;SDS011;32455;43.430;23.136;2023-04-03T10:38:12;1.05;;;0.80;;
46721;SDS011;32455;43.430;23.136;2023-04-03T10:47:15;1.10;;;1.00;;
46721;SDS011;32455;43.430;23.136;2023-04-03T10:52:55;3.10;;;1.00;;
46721;SDS011;32455;43.430;23.136;2023-04-03T10:56:15;2.65;;;1.10;;
46721;SDS011;32455;43.430;23.136;2023-04-03T11:02:24;2.28;;;1.10;;
46721;SDS011;32455;43.430;23.136;2023-04-03T11:08:28;1.30;;;0.93;;
46721;SDS011;32455;43.430;23.136;2023-04-03T11:14:34;1.30;;;1.00;;
46721;SDS011;32455;43.430;23.136;2023-04-03T11:17:38;4.35;;;1.30;;
46721;SDS011;32455;43.430;23.136;2023-04-03T11:20:30;2.72;;;1.63;;
46721;SDS011;32455;43.430;23.136;2023-04-03T11:23:25;2.13;;;1.40;;
46721;SDS011;32455;43.430;23.136;2023-04-03T11:26:15;1.63;;;1.52;;
46721;SDS011;32455;43.430;23.136;2023-04-03T11:29:03;4.68;;;1.98;;
46721;SDS011;32455;43.430;23.136;2023-04-03T11:32:11;1.75;;;1.60;;
46721;SDS011;32455;43.430;23.136;2023-04-03T11:35:23;2.28;;;1.50;;
46721;SDS011;32455;43.430;23.136;2023-04-03T11:38:14;3.15;;;1.50;;
46721;SDS011;32455;43.430;23.136;2023-04-03T11:41:07;3.58;;;2.00;;
46721;SDS011;32455;43.430;23.136;2023-04-03T11:44:02;2.88;;;1.63;;
46721;SDS011;32455;43.430;23.136;2023-04-03T11:46:54;1.70;;;1.60;;
46721;SDS011;32455;43.430;23.136;2023-04-03T11:49:57;3.08;;;1.52;;
46721;SDS011;32455;43.430;23.136;2023-04-03T11:52:55;1.67;;;1.58;;
46721;SDS011;32455;43.430;23.136;2023-04-03T11:55:55;2.92;;;1.73;;
46721;SDS011;32455;43.430;23.136;2023-04-03T11:59:31;2.97;;;2.25;;
46721;SDS011;32455;43.430;23.136;2023-04-03T12:01:55;2.00;;;1.50;;
46721;SDS011;32455;43.430;23.136;2023-04-03T12:05:34;2.28;;;1.92;;
46721;SDS011;32455;43.430;23.136;2023-04-03T12:11:44;2.13;;;1.60;;
46721;SDS011;32455;43.430;23.136;2023-04-03T12:14:31;2.08;;;1.42;;
46721;SDS011;32455;43.430;23.136;2023-04-03T12:17:20;1.85;;;1.60;;
46721;SDS011;32455;43.430;23.136;2023-04-03T12:23:55;3.10;;;1.52;;
46721;SDS011;32455;43.430;23.136;2023-04-03T12:30:19;3.33;;;1.48;;
46721;SDS011;32455;43.430;23.136;2023-04-03T12:33:15;1.70;;;1.27;;
46721;SDS011;32455;43.430;23.136;2023-04-03T12:36:21;5.10;;;1.50;;
46721;SDS011;32455;43.430;23.136;2023-04-03T12:39:41;2.65;;;1.20;;
46721;SDS011;32455;43.430;23.136;2023-04-03T12:48:56;3.58;;;1.90;;
46721;SDS011;32455;43.430;23.136;2023-04-03T12:51:47;2.53;;;1.80;;
46721;SDS011;32455;43.430;23.136;2023-04-03T12:54:37;4.07;;;1.48;;
46721;SDS011;32455;43.430;23.136;2023-04-03T12:57:25;3.30;;;1.40;;
46721;SDS011;32455;43.430;23.136;2023-04-03T13:00:25;3.55;;;1.40;;
46721;SDS011;32455;43.430;23.136;2023-04-03T13:03:23;3.00;;;1.80;;
46721;SDS011;32455;43.430;23.136;2023-04-03T13:06:21;3.25;;;1.70;;
46721;SDS011;32455;43.430;23.136;2023-04-03T13:09:23;3.30;;;1.70;;
46721;SDS011;32455;43.430;23.136;2023-04-03T13:12:18;2.97;;;2.00;;
46721;SDS011;32455;43.430;23.136;2023-04-03T13:15:14;3.25;;;1.70;;
46721;SDS011;32455;43.430;23.136;2023-04-03T13:18:05;5.35;;;1.85;;
46721;SDS011;32455;43.430;23.136;2023-04-03T13:21:19;3.05;;;1.52;;
46721;SDS011;32455;43.430;23.136;2023-04-03T13:24:09;4.00;;;2.10;;
46721;SDS011;32455;43.430;23.136;2023-04-03T13:26:56;2.40;;;1.80;;
46721;SDS011;32455;43.430;23.136;2023-04-03T13:29:42;4.70;;;1.88;;
46721;SDS011;32455;43.430;23.136;2023-04-03T13:32:28;3.75;;;1.70;;
46721;SDS011;32455;43.430;23.136;2023-04-03T13:38:42;2.20;;;1.85;;
46721;SDS011;32455;43.430;23.136;2023-04-03T13:41:31;3.10;;;1.83;;
46721;SDS011;32455;43.430;23.136;2023-04-03T13:44:28;5.90;;;2.10;;
46721;SDS011;32455;43.430;23.136;2023-04-03T13:47:21;2.10;;;1.50;;
46721;SDS011;32455;43.430;23.136;2023-04-03T13:53:15;5.60;;;1.75;;
46721;SDS011;32455;43.430;23.136;2023-04-03T13:59:23;3.53;;;1.90;;
46721;SDS011;32455;43.430;23.136;2023-04-03T14:04:52;1.73;;;1.58;;
46721;SDS011;32455;43.430;23.136;2023-04-03T14:07:45;4.03;;;1.70;;
46721;SDS011;32455;43.430;23.136;2023-04-03T14:10:30;8.00;;;2.00;;
46721;SDS011;32455;43.430;23.136;2023-04-03T14:13:17;2.15;;;1.73;;
46721;SDS011;32455;43.430;23.136;2023-04-03T14:16:05;4.30;;;1.95;;
46721;SDS011;32455;43.430;23.136;2023-04-03T14:18:51;7.30;;;2.00;;
46721;SDS011;32455;43.430;23.136;2023-04-03T14:21:38;2.85;;;1.88;;
46721;SDS011;32455;43.430;23.136;2023-04-03T14:24:23;2.13;;;1.88;;
46721;SDS011;32455;43.430;23.136;2023-04-03T14:27:11;2.20;;;2.00;;
46721;SDS011;32455;43.430;23.136;2023-04-03T14:30:04;3.25;;;2.30;;
46721;SDS011;32455;43.430;23.136;2023-04-03T14:32:51;4.25;;;2.17;;
46721;SDS011;32455;43.430;23.136;2023-04-03T14:35:36;2.47;;;1.95;;
46721;SDS011;32455;43.430;23.136;2023-04-03T14:38:26;1.90;;;1.70;;
46721;SDS011;32455;43.430;23.136;2023-04-03T14:41:16;3.42;;;1.55;;
46721;SDS011;32455;43.430;23.136;2023-04-03T14:44:03;3.10;;;1.55;;
46721;SDS011;32455;43.430;23.136;2023-04-03T14:46:49;4.40;;;1.60;;
46721;SDS011;32455;43.430;23.136;2023-04-03T14:49:34;2.97;;;1.42;;
46721;SDS011;32455;43.430;23.136;2023-04-03T14:52:21;3.78;;;1.52;;
46721;SDS011;32455;43.430;23.136;2023-04-03T14:55:12;2.17;;;1.60;;
46721;SDS011;32455;43.430;23.136;2023-04-03T14:57:59;3.80;;;1.70;;
46721;SDS011;32455;43.430;23.136;2023-04-03T15:00:45;1.85;;;1.60;;
46721;SDS011;32455;43.430;23.136;2023-04-03T15:03:30;2.67;;;1.63;;
46721;SDS011;32455;43.430;23.136;2023-04-03T15:06:15;2.40;;;1.73;;
46721;SDS011;32455;43.430;23.136;2023-04-03T15:09:01;2.53;;;2.13;;
46721;SDS011;32455;43.430;23.136;2023-04-03T15:11:48;2.10;;;1.90;;
46721;SDS011;32455;43.430;23.136;2023-04-03T15:14:35;2.80;;;1.92;;
46721;SDS011;32455;43.430;23.136;2023-04-03T15:17:21;2.85;;;2.00;;
46721;SDS011;32455;43.430;23.136;2023-04-03T15:20:15;2.00;;;1.70;;
46721;SDS011;32455;43.430;23.136;2023-04-03T15:23:02;2.10;;;1.85;;
46721;SDS011;32455;43.430;23.136;2023-04-03T15:25:49;2.33;;;1.77;;
46721;SDS011;32455;43.430;23.136;2023-04-03T15:28:43;2.53;;;1.70;;
46721;SDS011;32455;43.430;23.136;2023-04-03T15:31:29;3.03;;;1.80;;
46721;SDS011;32455;43.430;23.136;2023-04-03T15:34:16;2.97;;;2.50;;
46721;SDS011;32455;43.430;23.136;2023-04-03T15:37:01;2.95;;;2.20;;
46721;SDS011;32455;43.430;23.136;2023-04-03T15:39:47;5.45;;;2.80;;
46721;SDS011;32455;43.430;23.136;2023-04-03T15:42:32;2.58;;;2.38;;
46721;SDS011;32455;43.430;23.136;2023-04-03T15:45:18;3.00;;;2.70;;
46721;SDS011;32455;43.430;23.136;2023-04-03T15:48:04;2.67;;;2.33;;
46721;SDS011;32455;43.430;23.136;2023-04-03T15:50:50;4.65;;;3.28;;
46721;SDS011;32455;43.430;23.136;2023-04-03T15:53:35;4.68;;;2.65;;
46721;SDS011;32455;43.430;23.136;2023-04-03T15:56:21;3.10;;;2.65;;
46721;SDS011;32455;43.430;23.136;2023-04-03T15:59:06;2.72;;;2.42;;
46721;SDS011;32455;43.430;23.136;2023-04-03T16:01:51;1.50;;;1.30;;
46721;SDS011;32455;43.430;23.136;2023-04-03T16:04:37;1.30;;;1.20;;
46721;SDS011;32455;43.430;23.136;2023-04-03T16:07:23;1.58;;;1.13;;
46721;SDS011;32455;43.430;23.136;2023-04-03T16:10:13;3.28;;;1.15;;
46721;SDS011;32455;43.430;23.136;2023-04-03T16:13:01;2.20;;;1.48;;
46721;SDS011;32455;43.430;23.136;2023-04-03T16:15:48;1.92;;;1.73;;
46721;SDS011;32455;43.430;23.136;2023-04-03T16:18:34;2.75;;;2.20;;
46721;SDS011;32455;43.430;23.136;2023-04-03T16:21:19;4.25;;;2.10;;
46721;SDS011;32455;43.430;23.136;2023-04-03T16:24:05;2.40;;;2.00;;
46721;SDS011;32455;43.430;23.136;2023-04-03T16:26:50;2.75;;;2.45;;
46721;SDS011;32455;43.430;23.136;2023-04-03T16:29:37;2.83;;;2.63;;
46721;SDS011;32455;43.430;23.136;2023-04-03T16:32:23;4.47;;;2.75;;
46721;SDS011;32455;43.430;23.136;2023-04-03T16:35:12;3.83;;;2.88;;
46721;SDS011;32455;43.430;23.136;2023-04-03T16:37:57;3.17;;;2.88;;
46721;SDS011;32455;43.430;23.136;2023-04-03T16:40:43;3.17;;;2.88;;
46721;SDS011;32455;43.430;23.136;2023-04-03T16:43:29;3.70;;;3.22;;
46721;SDS011;32455;43.430;23.136;2023-04-03T16:46:15;4.15;;;3.33;;
46721;SDS011;32455;43.430;23.136;2023-04-03T16:49:00;3.55;;;3.10;;
46721;SDS011;32455;43.430;23.136;2023-04-03T16:51:48;3.72;;;2.85;;
46721;SDS011;32455;43.430;23.136;2023-04-03T16:54:34;3.45;;;2.88;;
46721;SDS011;32455;43.430;23.136;2023-04-03T16:57:19;3.75;;;2.90;;
46721;SDS011;32455;43.430;23.136;2023-04-03T17:00:05;4.75;;;3.22;;
46721;SDS011;32455;43.430;23.136;2023-04-03T17:02:52;4.25;;;3.35;;
46721;SDS011;32455;43.430;23.136;2023-04-03T17:05:37;3.60;;;3.30;;
46721;SDS011;32455;43.430;23.136;2023-04-03T17:08:23;4.38;;;3.67;;
46721;SDS011;32455;43.430;23.136;2023-04-03T17:11:07;4.13;;;3.50;;
46721;SDS011;32455;43.430;23.136;2023-04-03T17:13:53;4.78;;;3.50;;
46721;SDS011;32455;43.430;23.136;2023-04-03T17:16:39;5.15;;;3.70;;
46721;SDS011;32455;43.430;23.136;2023-04-03T17:19:24;4.85;;;3.90;;
46721;SDS011;32455;43.430;23.136;2023-04-03T17:22:10;3.75;;;3.17;;
46721;SDS011;32455;43.430;23.136;2023-04-03T17:24:56;4.15;;;3.78;;
46721;SDS011;32455;43.430;23.136;2023-04-03T17:27:42;6.25;;;4.70;;
46721;SDS011;32455;43.430;23.136;2023-04-03T17:30:27;8.43;;;5.80;;
46721;SDS011;32455;43.430;23.136;2023-04-03T17:33:13;8.25;;;4.05;;
46721;SDS011;32455;43.430;23.136;2023-04-03T17:35:59;5.60;;;3.85;;
46721;SDS011;32455;43.430;23.136;2023-04-03T17:38:49;4.55;;;4.13;;
46721;SDS011;32455;43.430;23.136;2023-04-03T17:41:35;6.43;;;4.80;;
46721;SDS011;32455;43.430;23.136;2023-04-03T17:44:20;5.88;;;4.72;;
46721;SDS011;32455;43.430;23.136;2023-04-03T17:47:06;5.60;;;4.38;;